Time;durP1;ratioP1;P1;durP2;ratioP2;P2;SDS_P1;SDS_P2;PMS_P1;PMS_P2;Temp;Humidity;BMP_temperature;BMP_pressure;BME280_temperature;BME280_humidity;BME280_pressure;Samples;Min_cycle;Max_cycle;Signal;HPM_P1;HPM_P2
2021/12/23 00:01:10;;;;;;;20.53;9.90;;;0.30;99.90;;;;;;5018252;28;20459;-71
2021/12/23 00:03:37;;;;;;;12.63;6.10;;;0.30;99.90;;;;;;5015840;28;20541;-71
2021/12/23 00:06:04;;;;;;;8.73;6.10;;;0.30;99.90;;;;;;5016149;28;20546;-70
2021/12/23 00:08:34;;;;;;;15.43;9.43;;;0.20;99.90;;;;;;5019072;28;21147;-70
2021/12/23 00:11:01;;;;;;;13.50;7.03;;;0.20;99.90;;;;;;5017321;28;20448;-70
2021/12/23 00:13:27;;;;;;;11.70;7.53;;;0.10;99.90;;;;;;5018809;28;20461;-70
2021/12/23 00:16:06;;;;;;;13.20;7.50;;;0.00;99.90;;;;;;5013213;28;20455;-69
2021/12/23 00:18:52;;;;;;;8.30;5.83;;;0.20;99.90;;;;;;5017665;28;20463;-71
2021/12/23 00:24:05;;;;;;;20.27;11.67;;;0.10;99.90;;;;;;5037580;28;20447;-69
2021/12/23 00:26:32;;;;;;;14.30;9.93;;;0.30;99.90;;;;;;5017167;28;20443;-71
2021/12/23 00:28:59;;;;;;;21.53;8.23;;;0.10;99.90;;;;;;5014281;28;21247;-70
2021/12/23 00:31:26;;;;;;;17.90;9.00;;;0.20;99.90;;;;;;5014119;28;20453;-69
2021/12/23 00:33:53;;;;;;;13.20;10.53;;;0.10;99.90;;;;;;5011876;28;20612;-71
2021/12/23 00:36:20;;;;;;;12.20;6.63;;;0.10;99.90;;;;;;5017329;28;20978;-70
2021/12/23 00:38:51;;;;;;;15.50;6.93;;;0.10;99.90;;;;;;5021540;28;21119;-72
2021/12/23 00:41:22;;;;;;;11.17;5.90;;;0.10;99.90;;;;;;5019669;28;20990;-71
2021/12/23 00:43:49;;;;;;;13.27;7.50;;;0.30;99.90;;;;;;5015049;28;21029;-71
2021/12/23 00:46:17;;;;;;;12.17;7.73;;;0.40;99.90;;;;;;5013321;28;20460;-71
2021/12/23 00:48:44;;;;;;;9.73;7.40;;;0.30;99.90;;;;;;5011995;28;20490;-71
2021/12/23 00:51:12;;;;;;;14.33;7.90;;;0.40;99.90;;;;;;5011443;28;21022;-69
2021/12/23 00:53:40;;;;;;;10.00;7.70;;;0.40;99.90;;;;;;5022070;28;20565;-71
2021/12/23 00:56:10;;;;;;;9.37;6.37;;;0.40;99.90;;;;;;5021017;28;20488;-71
2021/12/23 00:58:38;;;;;;;11.33;6.73;;;0.30;99.90;;;;;;5014309;28;20460;-70
2021/12/23 01:01:06;;;;;;;7.57;6.80;;;0.50;99.90;;;;;;5013609;28;20513;-71
2021/12/23 01:03:33;;;;;;;14.73;7.03;;;0.70;99.90;;;;;;5022247;28;20454;-71
2021/12/23 01:06:00;;;;;;;19.00;4.83;;;0.70;99.90;;;;;;5011238;28;21001;-72
2021/12/23 01:08:28;;;;;;;10.43;7.80;;;0.80;99.90;;;;;;5016245;28;20467;-69
2021/12/23 01:10:57;;;;;;;9.20;5.47;;;0.70;99.90;;;;;;5014272;28;20426;-70
2021/12/23 01:13:28;;;;;;;13.07;8.83;;;0.70;99.90;;;;;;5020726;28;20583;-71
2021/12/23 01:16:04;;;;;;;9.67;5.60;;;0.80;99.90;;;;;;5018721;28;20456;-71
2021/12/23 01:18:37;;;;;;;7.77;6.47;;;0.80;99.90;;;;;;5012962;28;20533;-71
2021/12/23 01:21:16;;;;;;;8.30;6.80;;;0.80;99.90;;;;;;5014188;28;20467;-70
2021/12/23 01:23:48;;;;;;;9.53;6.20;;;0.80;99.90;;;;;;5008742;28;20450;-71
2021/12/23 01:26:19;;;;;;;5.97;4.40;;;0.80;99.90;;;;;;5014175;28;20817;-71
2021/12/23 01:28:48;;;;;;;9.17;5.30;;;0.80;99.90;;;;;;5022930;28;20917;-70
2021/12/23 01:31:16;;;;;;;4.10;3.80;;;0.80;99.90;;;;;;5011372;28;20453;-71
2021/12/23 01:33:44;;;;;;;9.70;4.97;;;0.70;99.90;;;;;;5015433;28;20820;-71
2021/12/23 01:36:13;;;;;;;4.70;3.37;;;0.30;99.90;;;;;;5013261;28;20452;-72
2021/12/23 01:38:40;;;;;;;13.37;6.83;;;0.20;99.90;;;;;;5016777;28;20427;-70
2021/12/23 01:41:07;;;;;;;7.03;3.83;;;0.20;99.90;;;;;;5015150;28;20454;-70
2021/12/23 01:43:35;;;;;;;11.10;7.50;;;0.30;99.90;;;;;;5019496;28;20570;-69
2021/12/23 01:46:02;;;;;;;7.60;4.60;;;0.50;99.90;;;;;;5000318;28;20466;-72
2021/12/23 01:48:30;;;;;;;11.23;5.73;;;0.50;99.90;;;;;;5015631;28;20464;-72
2021/12/23 01:50:58;;;;;;;7.40;5.00;;;0.40;99.90;;;;;;5014122;28;20525;-70
2021/12/23 01:53:25;;;;;;;17.57;7.33;;;0.50;99.90;;;;;;5022072;28;20535;-71
2021/12/23 01:55:52;;;;;;;5.37;4.80;;;0.50;99.90;;;;;;5013010;28;20438;-70
2021/12/23 01:58:20;;;;;;;13.03;6.40;;;0.50;99.90;;;;;;5019280;28;20462;-71
2021/12/23 02:00:49;;;;;;;10.07;7.60;;;0.60;99.90;;;;;;5018865;28;20574;-70
2021/12/23 02:03:16;;;;;;;9.33;6.97;;;0.60;99.90;;;;;;5014077;28;20609;-70
2021/12/23 02:05:45;;;;;;;8.33;6.03;;;0.50;99.90;;;;;;5016174;28;20465;-72
2021/12/23 02:08:13;;;;;;;11.53;7.47;;;0.70;99.90;;;;;;4998243;28;20431;-70
2021/12/23 02:10:42;;;;;;;10.43;7.73;;;0.70;99.90;;;;;;5011313;28;20461;-71
2021/12/23 02:13:09;;;;;;;9.53;6.20;;;0.80;99.90;;;;;;5007465;28;20483;-71
2021/12/23 02:15:36;;;;;;;10.70;4.90;;;0.80;99.90;;;;;;5015389;28;20806;-70
2021/12/23 02:18:03;;;;;;;10.60;6.80;;;0.80;99.90;;;;;;5015800;28;20977;-69
2021/12/23 02:20:33;;;;;;;9.70;6.40;;;0.80;99.90;;;;;;5017284;28;20433;-70
2021/12/23 02:23:01;;;;;;;7.53;5.10;;;0.80;99.90;;;;;;5024063;28;20484;-71
2021/12/23 02:25:29;;;;;;;7.77;6.83;;;0.70;99.90;;;;;;5026619;28;20564;-69
2021/12/23 02:27:57;;;;;;;12.57;5.60;;;0.70;99.90;;;;;;5016967;28;20835;-70
2021/12/23 02:30:26;;;;;;;11.10;5.67;;;0.50;99.90;;;;;;5020421;28;24707;-70
2021/12/23 02:32:54;;;;;;;8.97;7.10;;;0.30;99.90;;;;;;5025821;28;20607;-71
2021/12/23 02:35:24;;;;;;;12.87;7.00;;;0.40;99.90;;;;;;5007014;28;20458;-70
2021/12/23 02:37:53;;;;;;;10.53;7.77;;;0.60;99.90;;;;;;5013306;28;20458;-71
2021/12/23 02:40:30;;;;;;;7.80;5.83;;;0.70;99.90;;;;;;5018114;28;20958;-71
2021/12/23 02:42:58;;;;;;;9.90;7.47;;;0.70;99.90;;;;;;5014860;28;20609;-70
2021/12/23 02:45:25;;;;;;;7.87;5.40;;;0.60;99.90;;;;;;5020478;28;20458;-71
2021/12/23 02:47:52;;;;;;;4.43;3.63;;;0.70;99.90;;;;;;5032441;28;21299;-73
2021/12/23 02:50:19;;;;;;;8.60;5.07;;;0.70;99.90;;;;;;5027660;28;20437;-71
2021/12/23 02:52:46;;;;;;;6.23;4.60;;;0.80;99.90;;;;;;5026428;28;20549;-70
2021/12/23 02:55:21;;;;;;;10.80;5.17;;;0.80;99.90;;;;;;5020674;28;20442;-71
2021/12/23 02:57:48;;;;;;;11.50;5.73;;;0.80;99.90;;;;;;5021242;28;20432;-70
2021/12/23 03:00:16;;;;;;;17.07;6.67;;;0.80;99.90;;;;;;5004031;28;20558;-70
2021/12/23 03:02:43;;;;;;;13.00;6.10;;;0.80;99.90;;;;;;5029052;28;20500;-70
2021/12/23 03:05:11;;;;;;;17.33;7.27;;;0.90;99.90;;;;;;5019268;28;20915;-69
2021/12/23 03:07:38;;;;;;;7.43;6.43;;;1.00;99.90;;;;;;5017801;28;21970;-71
2021/12/23 03:10:08;;;;;;;8.70;6.50;;;1.00;99.90;;;;;;5017914;28;20442;-72
2021/12/23 03:12:37;;;;;;;8.33;4.50;;;1.10;99.90;;;;;;5012851;28;20517;-71
2021/12/23 03:15:05;;;;;;;18.37;6.80;;;1.00;99.90;;;;;;5007578;28;21019;-68
2021/12/23 03:17:32;;;;;;;16.17;6.17;;;1.00;99.90;;;;;;5022147;28;20483;-69
2021/12/23 03:19:59;;;;;;;7.10;5.33;;;1.00;99.90;;;;;;5020654;28;20433;-69
2021/12/23 03:22:26;;;;;;;11.97;6.07;;;1.10;99.90;;;;;;5012733;28;20434;-70
2021/12/23 03:24:54;;;;;;;8.50;7.53;;;1.20;99.90;;;;;;5012696;28;20558;-70
2021/12/23 03:27:21;;;;;;;10.10;6.23;;;1.20;99.90;;;;;;5020992;28;20464;-69
2021/12/23 03:29:49;;;;;;;11.07;6.13;;;1.30;99.90;;;;;;5024505;28;20441;-71
2021/12/23 03:32:16;;;;;;;16.30;9.43;;;1.30;99.90;;;;;;5017629;28;20578;-71
2021/12/23 03:34:43;;;;;;;10.10;6.30;;;1.40;99.90;;;;;;5024329;28;20473;-73
2021/12/23 03:37:11;;;;;;;14.33;5.73;;;1.40;99.90;;;;;;5014547;28;20560;-71
2021/12/23 03:39:38;;;;;;;10.83;6.27;;;1.40;99.90;;;;;;5014315;28;20439;-70
2021/12/23 03:42:06;;;;;;;9.40;6.70;;;1.30;99.90;;;;;;5033995;28;21099;-72
2021/12/23 03:44:33;;;;;;;13.77;6.60;;;1.20;99.90;;;;;;5016480;28;20601;-71
2021/12/23 03:47:01;;;;;;;10.23;6.00;;;1.00;99.90;;;;;;5015175;28;20557;-70
2021/12/23 03:49:29;;;;;;;10.37;6.63;;;1.10;99.90;;;;;;5022335;28;20453;-70
2021/12/23 03:51:56;;;;;;;7.03;5.37;;;1.10;99.90;;;;;;5019252;28;20539;-70
2021/12/23 03:54:23;;;;;;;10.83;6.10;;;1.20;99.90;;;;;;5016919;28;20462;-70
2021/12/23 03:56:50;;;;;;;9.77;6.70;;;1.30;99.90;;;;;;5004206;28;20460;-71
2021/12/23 03:59:17;;;;;;;12.20;7.63;;;1.30;99.90;;;;;;5020875;28;20595;-71
2021/12/23 04:01:44;;;;;;;9.07;5.90;;;1.20;99.90;;;;;;5003469;28;20446;-71
2021/12/23 04:04:12;;;;;;;11.30;5.00;;;1.20;99.90;;;;;;5022577;28;20457;-69
2021/12/23 04:06:39;;;;;;;9.40;6.40;;;1.40;99.90;;;;;;4979592;28;20954;-69
2021/12/23 04:09:07;;;;;;;4.93;4.40;;;1.10;99.90;;;;;;5023427;28;20459;-71
2021/12/23 04:11:33;;;;;;;8.57;5.43;;;1.10;99.90;;;;;;5017003;28;20429;-70
2021/12/23 04:14:01;;;;;;;8.53;5.40;;;1.00;99.90;;;;;;5016018;28;21187;-71
2021/12/23 04:16:28;;;;;;;7.23;5.37;;;0.70;99.90;;;;;;5005684;28;21549;-70
2021/12/23 04:18:55;;;;;;;9.03;6.70;;;0.60;99.90;;;;;;5017330;28;20526;-70
2021/12/23 04:21:24;;;;;;;11.07;5.90;;;0.60;99.90;;;;;;5032787;28;20452;-69
2021/12/23 04:23:52;;;;;;;7.73;5.20;;;0.50;99.90;;;;;;5028093;28;20503;-70
2021/12/23 04:26:19;;;;;;;10.60;5.80;;;0.50;99.90;;;;;;5020275;28;20434;-69
2021/12/23 04:28:47;;;;;;;15.13;6.90;;;0.50;99.90;;;;;;5026137;28;20513;-70
2021/12/23 04:31:16;;;;;;;9.90;6.23;;;0.50;99.90;;;;;;5026682;28;20455;-73
2021/12/23 04:33:44;;;;;;;9.00;4.43;;;0.50;99.90;;;;;;5032955;28;21700;-72
2021/12/23 04:36:11;;;;;;;5.93;4.50;;;0.50;99.90;;;;;;5017138;28;21011;-71
2021/12/23 04:38:41;;;;;;;10.50;5.47;;;0.60;99.90;;;;;;5023741;28;20635;-68
2021/12/23 04:41:09;;;;;;;13.17;5.40;;;0.50;99.90;;;;;;5022066;28;20451;-68
2021/12/23 04:43:36;;;;;;;9.97;4.90;;;0.30;99.90;;;;;;5024522;28;20465;-71
2021/12/23 04:46:04;;;;;;;6.57;4.67;;;0.30;99.90;;;;;;5021766;28;20620;-69
2021/12/23 04:48:31;;;;;;;9.07;5.73;;;0.40;99.90;;;;;;5010715;28;20497;-69
2021/12/23 04:50:59;;;;;;;14.70;4.80;;;0.40;99.90;;;;;;5033034;28;20453;-70
2021/12/23 04:53:26;;;;;;;9.10;6.63;;;0.40;99.90;;;;;;5025466;28;20469;-71
2021/12/23 04:55:54;;;;;;;10.37;7.27;;;0.40;99.90;;;;;;5020375;28;21148;-70
2021/12/23 04:58:21;;;;;;;9.03;5.53;;;0.40;99.90;;;;;;5025205;28;20588;-69
2021/12/23 05:00:50;;;;;;;7.40;6.20;;;0.30;99.90;;;;;;5021907;28;20916;-70
2021/12/23 05:03:17;;;;;;;11.57;6.40;;;0.10;99.90;;;;;;5014086;28;21169;-70
2021/12/23 05:05:45;;;;;;;8.47;5.80;;;0.10;99.90;;;;;;5005714;28;20540;-70
2021/12/23 05:08:12;;;;;;;10.00;6.37;;;0.00;99.90;;;;;;5005027;28;20431;-69
2021/12/23 05:10:40;;;;;;;8.00;6.00;;;-0.10;99.90;;;;;;5026770;28;20456;-70
2021/12/23 05:13:09;;;;;;;9.10;6.57;;;-0.10;99.90;;;;;;5021444;28;20473;-71
2021/12/23 05:15:36;;;;;;;12.50;5.73;;;-0.10;99.90;;;;;;5025364;28;20467;-70
2021/12/23 05:18:04;;;;;;;9.10;4.10;;;-0.10;99.90;;;;;;5014895;28;20638;-68
2021/12/23 05:20:31;;;;;;;7.33;5.13;;;0.00;99.90;;;;;;5008790;28;20451;-70
2021/12/23 05:22:59;;;;;;;9.07;5.80;;;0.00;99.90;;;;;;5025361;28;20449;-72
2021/12/23 05:25:26;;;;;;;6.43;4.67;;;-0.20;99.90;;;;;;5008354;28;20434;-69
2021/12/23 05:27:54;;;;;;;6.80;5.70;;;-0.20;99.90;;;;;;5015876;28;20765;-70
2021/12/23 05:30:24;;;;;;;4.57;4.30;;;-0.20;99.90;;;;;;5019667;28;20467;-72
2021/12/23 05:32:55;;;;;;;8.97;5.63;;;-0.10;99.90;;;;;;5015296;28;20538;-71
2021/12/23 05:35:22;;;;;;;8.87;3.53;;;-0.10;99.90;;;;;;5016459;28;21026;-71
2021/12/23 05:37:50;;;;;;;8.33;5.70;;;0.00;99.90;;;;;;5027928;28;20456;-69
2021/12/23 05:40:19;;;;;;;8.50;5.63;;;0.10;99.90;;;;;;5019885;28;21024;-68
2021/12/23 05:42:47;;;;;;;5.53;5.03;;;0.10;99.90;;;;;;5029040;28;20486;-70
2021/12/23 05:45:15;;;;;;;11.40;7.50;;;0.10;99.90;;;;;;5019534;28;20513;-71
2021/12/23 05:47:44;;;;;;;5.70;4.70;;;0.10;99.90;;;;;;5025242;28;20595;-70
2021/12/23 05:50:13;;;;;;;7.33;5.00;;;0.10;99.90;;;;;;5020753;28;21133;-68
2021/12/23 05:52:41;;;;;;;7.23;5.43;;;0.20;99.90;;;;;;5029268;28;20503;-68
2021/12/23 05:55:09;;;;;;;10.40;5.50;;;0.30;99.90;;;;;;5020229;28;20469;-69
2021/12/23 05:57:37;;;;;;;12.00;6.83;;;0.20;99.90;;;;;;5029980;28;20551;-69
2021/12/23 06:00:07;;;;;;;11.40;5.00;;;0.30;99.90;;;;;;5027098;28;20517;-69
2021/12/23 06:02:33;;;;;;;7.37;6.67;;;0.30;99.90;;;;;;5023431;28;20474;-70
2021/12/23 06:05:02;;;;;;;11.87;5.27;;;0.60;99.90;;;;;;5021240;28;20723;-69
2021/12/23 06:07:29;;;;;;;12.40;7.10;;;0.60;99.90;;;;;;5030879;28;20565;-70
2021/12/23 06:09:56;;;;;;;12.17;6.60;;;0.60;99.90;;;;;;5020107;28;20464;-73
2021/12/23 06:12:23;;;;;;;9.17;5.30;;;0.60;99.90;;;;;;5011960;28;20544;-68
2021/12/23 06:14:50;;;;;;;14.60;6.23;;;0.80;99.90;;;;;;5008384;28;20483;-71
2021/12/23 06:17:17;;;;;;;11.53;6.50;;;0.90;99.90;;;;;;5017248;28;20760;-68
2021/12/23 06:19:45;;;;;;;12.93;4.80;;;0.90;99.90;;;;;;5006605;28;20501;-71
2021/12/23 06:22:14;;;;;;;9.17;5.97;;;1.00;99.90;;;;;;5021883;28;20471;-70
2021/12/23 06:24:44;;;;;;;14.80;6.70;;;1.00;99.90;;;;;;5019250;28;20445;-68
2021/12/23 06:27:12;;;;;;;15.00;6.90;;;1.10;99.90;;;;;;5016064;28;20889;-71
2021/12/23 06:29:42;;;;;;;10.30;6.57;;;1.10;99.90;;;;;;5014642;28;20533;-73
2021/12/23 06:32:10;;;;;;;12.67;6.90;;;1.10;99.90;;;;;;5015199;28;20939;-72
2021/12/23 06:34:38;;;;;;;9.33;5.47;;;1.20;99.90;;;;;;5016358;28;20451;-71
2021/12/23 06:37:06;;;;;;;8.23;4.93;;;1.30;99.90;;;;;;5012073;28;20527;-73
2021/12/23 06:39:36;;;;;;;10.47;5.83;;;1.30;99.90;;;;;;5013366;28;20587;-70
2021/12/23 06:42:04;;;;;;;13.00;6.77;;;1.20;99.90;;;;;;5012874;28;21242;-71
2021/12/23 06:44:33;;;;;;;11.40;7.40;;;1.10;99.90;;;;;;5004844;28;20438;-71
2021/12/23 06:47:00;;;;;;;9.63;6.57;;;1.10;99.90;;;;;;5009052;28;20459;-70
2021/12/23 06:49:31;;;;;;;20.03;7.90;;;1.10;99.90;;;;;;5015796;28;21452;-71
2021/12/23 06:51:58;;;;;;;9.07;5.27;;;1.10;99.90;;;;;;5005733;28;20471;-72
2021/12/23 06:54:25;;;;;;;11.30;6.40;;;1.10;99.90;;;;;;5023478;28;21053;-70
2021/12/23 06:56:54;;;;;;;8.47;4.97;;;1.10;99.90;;;;;;5015874;28;20445;-74
2021/12/23 06:59:21;;;;;;;9.77;6.57;;;1.10;99.90;;;;;;5006429;28;20456;-71
2021/12/23 07:01:49;;;;;;;15.67;7.57;;;1.30;99.90;;;;;;5003908;28;20459;-71
2021/12/23 07:04:18;;;;;;;17.83;10.20;;;1.20;99.90;;;;;;5016328;28;24912;-69
2021/12/23 07:06:52;;;;;;;18.23;6.90;;;1.30;99.90;;;;;;5016395;28;20441;-70
2021/12/23 07:09:19;;;;;;;13.57;6.30;;;1.40;99.90;;;;;;5029882;28;20503;-71
2021/12/23 07:11:46;;;;;;;10.47;6.73;;;1.30;99.90;;;;;;5032855;28;20427;-68
2021/12/23 07:14:15;;;;;;;18.77;6.93;;;1.50;99.90;;;;;;5023450;28;20549;-72
2021/12/23 07:16:42;;;;;;;16.47;7.77;;;1.50;99.90;;;;;;5016729;28;20549;-70
2021/12/23 07:19:09;;;;;;;14.90;7.77;;;1.50;99.90;;;;;;5033533;28;20500;-72
2021/12/23 07:21:36;;;;;;;8.83;5.67;;;1.60;99.90;;;;;;5028940;28;20608;-71
2021/12/23 07:24:04;;;;;;;18.20;7.57;;;1.50;99.90;;;;;;5030483;28;20593;-73
2021/12/23 07:26:32;;;;;;;21.53;8.83;;;1.40;99.90;;;;;;5013147;28;20437;-72
2021/12/23 07:28:59;;;;;;;12.70;6.90;;;1.40;99.90;;;;;;5020639;28;21479;-69
2021/12/23 07:31:29;;;;;;;21.60;8.27;;;1.40;99.90;;;;;;5031222;28;20439;-71
2021/12/23 07:33:56;;;;;;;15.03;9.37;;;1.40;99.90;;;;;;5030831;28;20488;-71
2021/12/23 07:36:27;;;;;;;18.03;8.90;;;1.30;99.90;;;;;;5025693;28;20517;-69
2021/12/23 07:38:54;;;;;;;14.17;7.20;;;1.40;99.90;;;;;;5027118;28;20452;-70
2021/12/23 07:41:21;;;;;;;12.83;7.53;;;1.50;99.90;;;;;;5036215;28;20439;-70
2021/12/23 07:44:03;;;;;;;25.53;9.27;;;1.50;99.90;;;;;;5029613;28;20564;-71
2021/12/23 07:46:34;;;;;;;14.00;8.30;;;1.60;99.90;;;;;;5035130;28;20885;-69
2021/12/23 07:49:01;;;;;;;15.00;8.23;;;1.60;99.90;;;;;;5029270;28;20598;-72
2021/12/23 07:51:28;;;;;;;16.77;9.53;;;1.50;99.90;;;;;;5023802;28;20533;-71
2021/12/23 07:53:56;;;;;;;21.53;7.23;;;1.60;99.90;;;;;;5025495;28;20556;-68
2021/12/23 07:56:24;;;;;;;13.93;8.33;;;1.60;99.90;;;;;;5020642;28;20542;-70
2021/12/23 07:58:51;;;;;;;16.90;9.47;;;1.60;99.90;;;;;;5027737;28;20522;-70
2021/12/23 08:01:18;;;;;;;14.03;10.50;;;1.50;99.90;;;;;;5015623;28;20539;-70
2021/12/23 08:03:49;;;;;;;15.77;10.67;;;1.40;99.90;;;;;;5006719;28;20875;-69
2021/12/23 08:06:18;;;;;;;7.50;5.40;;;1.40;99.90;;;;;;5019777;28;20446;-70
2021/12/23 08:08:45;;;;;;;10.33;5.70;;;1.40;99.90;;;;;;5027992;28;20478;-70
2021/12/23 08:11:13;;;;;;;7.27;4.50;;;1.30;99.90;;;;;;5025240;28;20451;-70
2021/12/23 08:13:40;;;;;;;16.77;7.90;;;1.20;99.90;;;;;;5029604;28;20951;-70
2021/12/23 08:16:07;;;;;;;46.57;7.77;;;1.30;99.90;;;;;;5026800;28;20479;-72
2021/12/23 08:18:35;;;;;;;11.33;6.77;;;1.50;99.90;;;;;;5021280;28;20434;-69
2021/12/23 08:21:04;;;;;;;20.13;10.93;;;1.60;99.90;;;;;;5027788;28;20467;-74
2021/12/23 08:23:31;;;;;;;14.53;7.07;;;1.70;99.90;;;;;;5020314;28;21242;-72
2021/12/23 08:26:05;;;;;;;10.83;5.97;;;1.70;99.90;;;;;;5025936;28;20435;-69
2021/12/23 08:28:32;;;;;;;14.67;7.17;;;1.70;99.90;;;;;;5040312;28;20546;-72
2021/12/23 08:31:00;;;;;;;12.40;6.60;;;1.80;99.90;;;;;;5048589;28;20845;-70
2021/12/23 08:33:27;;;;;;;15.93;8.23;;;1.90;99.90;;;;;;5028171;28;21452;-71
2021/12/23 08:35:54;;;;;;;20.77;8.20;;;1.90;99.90;;;;;;5015275;28;20543;-70
2021/12/23 08:38:22;;;;;;;11.50;7.63;;;2.00;99.90;;;;;;5013799;28;21094;-71
2021/12/23 08:40:49;;;;;;;14.13;7.20;;;2.00;99.90;;;;;;5010804;28;20495;-72
2021/12/23 08:43:17;;;;;;;10.57;7.83;;;2.10;99.90;;;;;;5019722;28;20549;-72
2021/12/23 08:45:43;;;;;;;15.70;8.00;;;2.00;99.90;;;;;;5009177;28;20503;-71
2021/12/23 08:48:10;;;;;;;14.63;8.07;;;2.10;99.90;;;;;;5013733;28;21025;-69
2021/12/23 08:50:37;;;;;;;12.90;5.77;;;2.20;99.90;;;;;;5016022;28;20594;-70
2021/12/23 08:53:05;;;;;;;20.50;8.73;;;2.30;99.90;;;;;;5008780;28;20527;-70
2021/12/23 08:55:34;;;;;;;16.30;8.53;;;2.40;99.90;;;;;;5018229;28;20608;-69
2021/12/23 08:58:04;;;;;;;7.43;5.83;;;2.30;99.90;;;;;;5011634;28;20533;-71
2021/12/23 09:00:33;;;;;;;19.77;8.43;;;2.30;99.90;;;;;;5016064;28;20523;-69
2021/12/23 09:03:00;;;;;;;16.40;8.30;;;2.30;99.90;;;;;;5027138;28;20471;-69
2021/12/23 09:05:27;;;;;;;16.20;9.53;;;2.30;99.90;;;;;;5016364;28;20438;-70
2021/12/23 09:07:57;;;;;;;16.20;10.13;;;2.40;99.90;;;;;;5017799;28;20550;-69
2021/12/23 09:10:24;;;;;;;16.97;8.43;;;2.50;99.90;;;;;;5020661;28;20551;-70
2021/12/23 09:12:53;;;;;;;13.37;6.33;;;2.60;99.90;;;;;;5026928;28;20485;-68
2021/12/23 09:15:21;;;;;;;10.47;5.67;;;2.60;99.90;;;;;;5026995;28;20511;-67
2021/12/23 09:17:48;;;;;;;15.67;6.90;;;2.70;99.90;;;;;;5022277;28;20815;-67
2021/12/23 09:20:19;;;;;;;9.73;6.07;;;2.70;99.90;;;;;;5021310;28;20678;-68
2021/12/23 09:22:47;;;;;;;12.63;7.97;;;2.70;99.90;;;;;;5018959;28;20708;-68
2021/12/23 09:25:23;;;;;;;15.60;9.10;;;2.80;99.90;;;;;;5017578;28;20483;-67
2021/12/23 09:28:04;;;;;;;11.53;7.70;;;2.80;99.90;;;;;;5019661;28;20485;-68
2021/12/23 09:33:17;;;;;;;23.20;8.00;;;2.80;99.90;;;;;;5017120;28;20457;-67
2021/12/23 09:35:45;;;;;;;9.03;7.20;;;2.80;99.90;;;;;;5014705;28;21152;-68
2021/12/23 09:38:12;;;;;;;17.40;7.37;;;2.80;99.90;;;;;;5021989;28;20996;-67
2021/12/23 09:40:40;;;;;;;26.17;7.80;;;2.90;99.90;;;;;;5027071;28;20532;-68
2021/12/23 09:43:10;;;;;;;34.97;10.00;;;3.10;99.90;;;;;;5017676;28;20573;-69
2021/12/23 09:45:39;;;;;;;21.20;7.57;;;3.10;99.90;;;;;;5009514;28;21261;-69
2021/12/23 09:48:06;;;;;;;17.10;7.60;;;3.30;99.90;;;;;;5018694;28;21078;-70
2021/12/23 09:50:40;;;;;;;17.53;6.30;;;3.20;99.90;;;;;;5014855;28;21735;-67
2021/12/23 09:53:08;;;;;;;17.03;8.03;;;3.20;99.90;;;;;;5017328;28;20508;-69
2021/12/23 09:55:37;;;;;;;6.37;4.57;;;3.30;99.90;;;;;;5012706;28;21034;-68
2021/12/23 09:58:06;;;;;;;16.77;7.23;;;3.50;99.90;;;;;;5019519;28;20824;-68
2021/12/23 10:00:38;;;;;;;15.80;9.10;;;3.60;99.90;;;;;;5019746;28;20434;-68
2021/12/23 10:03:07;;;;;;;10.40;7.27;;;3.70;99.90;;;;;;5018249;28;20530;-69
2021/12/23 10:05:36;;;;;;;7.60;5.87;;;3.80;99.90;;;;;;5022521;28;20967;-69
2021/12/23 10:08:05;;;;;;;14.93;7.53;;;3.90;99.90;;;;;;5023308;28;20434;-70
2021/12/23 10:10:37;;;;;;;20.20;7.97;;;3.90;99.90;;;;;;5017236;28;20508;-67
2021/12/23 10:26:51;;;;;;;16.33;8.17;;;3.90;99.90;;;;;;5006238;28;25778;-68
2021/12/23 10:28:14;;;;;;;16.60;7.53;;;4.20;99.90;;;;;;5000532;28;20585;-69
2021/12/23 10:30:26;;;;;;;11.97;7.07;;;4.20;99.90;;;;;;5006664;28;20897;-70
2021/12/23 10:38:40;;;;;;;14.73;6.70;;;4.30;99.90;;;;;;5023517;28;20429;-68
2021/12/23 10:41:09;;;;;;;12.60;5.43;;;4.30;99.90;;;;;;5023271;28;20440;-69
2021/12/23 10:43:39;;;;;;;18.97;6.97;;;4.40;99.90;;;;;;5017358;28;20551;-68
2021/12/23 10:46:10;;;;;;;10.80;5.40;;;4.40;99.90;;;;;;5016335;28;20561;-70
2021/12/23 10:48:51;;;;;;;13.90;8.07;;;4.70;99.90;;;;;;5011793;28;20440;-70
2021/12/23 10:51:19;;;;;;;15.63;7.83;;;4.70;99.90;;;;;;5034732;28;20418;-69
2021/12/23 10:53:56;;;;;;;12.43;7.97;;;4.80;99.90;;;;;;5025481;28;22600;-69
2021/12/23 10:59:13;;;;;;;11.70;5.73;;;5.00;99.90;;;;;;5016424;28;20459;-67
2021/12/23 11:02:05;;;;;;;10.97;7.50;;;5.10;99.90;;;;;;5015449;28;20458;-69
2021/12/23 11:04:52;;;;;;;17.83;7.40;;;5.30;99.90;;;;;;5006557;28;20814;-69
2021/12/23 11:07:24;;;;;;;11.77;5.80;;;5.40;99.90;;;;;;5022910;28;20526;-67
2021/12/23 11:10:14;;;;;;;12.77;6.57;;;5.50;99.90;;;;;;5024861;28;21164;-67
2021/12/23 11:30:35;;;;;;;30.00;19.00;;;5.10;99.90;;;;;;5021126;28;20573;-68
2021/12/23 11:36:05;;;;;;;20.03;9.27;;;5.10;99.90;;;;;;5009850;28;20473;-69
2021/12/23 11:38:48;;;;;;;14.40;7.70;;;5.40;99.90;;;;;;5023977;28;20466;-71
2021/12/23 11:41:30;;;;;;;14.03;8.23;;;5.40;99.90;;;;;;5022933;28;20948;-69
2021/12/23 11:44:06;;;;;;;18.93;10.27;;;5.50;99.90;;;;;;5014982;28;20558;-68
2021/12/23 11:46:39;;;;;;;25.83;18.00;;;5.80;99.90;;;;;;5019105;28;20453;-67
2021/12/23 11:49:09;;;;;;;17.20;11.17;;;6.00;99.90;;;;;;5020510;28;20750;-69
2021/12/23 11:51:46;;;;;;;15.67;10.33;;;6.20;99.90;;;;;;5017646;28;20457;-68
2021/12/23 11:54:17;;;;;;;22.70;8.40;;;6.20;99.90;;;;;;5014910;28;20455;-69
2021/12/23 11:56:48;;;;;;;18.60;10.27;;;6.30;99.90;;;;;;5013266;28;20516;-67
2021/12/23 11:59:16;;;;;;;13.07;10.43;;;6.50;99.90;;;;;;5030372;28;20841;-69
2021/12/23 12:01:45;;;;;;;17.50;11.17;;;6.50;99.90;;;;;;5028327;28;20556;-68
2021/12/23 12:04:21;;;;;;;16.97;9.70;;;6.50;99.90;;;;;;5034111;28;20444;-68
2021/12/23 12:06:52;;;;;;;10.67;7.90;;;6.50;99.90;;;;;;5034767;28;20455;-68
2021/12/23 12:09:23;;;;;;;10.97;7.80;;;6.70;99.90;;;;;;5021567;28;20463;-68
2021/12/23 12:12:06;;;;;;;10.43;5.93;;;6.80;99.90;;;;;;5026332;28;20544;-68
2021/12/23 12:14:46;;;;;;;9.90;6.43;;;6.90;99.90;;;;;;5028430;28;20422;-67
2021/12/23 12:17:34;;;;;;;10.80;6.27;;;7.10;99.90;;;;;;5019042;28;20580;-68
2021/12/23 12:20:07;;;;;;;7.20;4.97;;;7.10;99.90;;;;;;5027370;28;20724;-69
2021/12/23 12:22:53;;;;;;;9.30;5.07;;;7.20;99.90;;;;;;5024765;28;20487;-68
2021/12/23 12:25:52;;;;;;;5.80;4.50;;;7.10;99.90;;;;;;5015097;28;20467;-69
2021/12/23 12:28:25;;;;;;;9.60;5.27;;;7.30;99.90;;;;;;5023198;28;20468;-68
2021/12/23 12:30:55;;;;;;;10.67;5.20;;;7.30;99.90;;;;;;5029235;28;20448;-68
2021/12/23 12:33:37;;;;;;;4.13;3.73;;;7.20;99.90;;;;;;5020010;28;20491;-69
2021/12/23 12:36:12;;;;;;;10.77;6.87;;;7.20;99.90;;;;;;5019771;28;20598;-68
2021/12/23 12:38:41;;;;;;;11.40;5.90;;;7.20;99.90;;;;;;5012188;28;20586;-68
2021/12/23 12:41:12;;;;;;;4.50;4.03;;;7.20;99.90;;;;;;5014663;28;20581;-69
2021/12/23 12:43:55;;;;;;;7.40;4.50;;;7.20;99.90;;;;;;4995413;28;20484;-69
2021/12/23 12:46:54;;;;;;;15.57;5.40;;;7.20;99.90;;;;;;5007767;28;20460;-69
2021/12/23 12:49:25;;;;;;;11.03;5.10;;;7.20;99.90;;;;;;5014958;28;20489;-67
2021/12/23 12:51:54;;;;;;;9.30;5.93;;;7.20;99.90;;;;;;5018026;28;20461;-68
2021/12/23 12:54:31;;;;;;;8.77;5.03;;;7.10;99.90;;;;;;5011132;28;20558;-68
2021/12/23 12:57:03;;;;;;;11.07;6.20;;;7.10;99.90;;;;;;5008995;28;20730;-68
2021/12/23 12:59:35;;;;;;;10.63;5.27;;;7.20;99.90;;;;;;5016718;28;20505;-70
2021/12/23 13:02:23;;;;;;;7.43;5.50;;;7.20;99.90;;;;;;5024120;28;20454;-67
2021/12/23 13:04:56;;;;;;;8.07;5.67;;;7.10;99.90;;;;;;5015442;28;20534;-68
2021/12/23 13:07:27;;;;;;;14.87;5.67;;;7.10;99.90;;;;;;5018438;28;20470;-69
2021/12/23 13:09:59;;;;;;;8.87;4.97;;;7.10;99.90;;;;;;5019305;28;20463;-68
2021/12/23 13:12:33;;;;;;;7.17;3.57;;;7.20;99.90;;;;;;5021245;28;20633;-67
2021/12/23 13:15:19;;;;;;;22.10;5.13;;;7.10;99.90;;;;;;5023399;28;20438;-68
2021/12/23 13:17:55;;;;;;;10.57;3.80;;;7.00;99.90;;;;;;5014343;28;21290;-68
2021/12/23 13:20:34;;;;;;;11.60;5.87;;;6.90;99.90;;;;;;5012216;28;20516;-69
2021/12/23 13:23:03;;;;;;;10.97;6.60;;;7.10;99.90;;;;;;5014309;28;21509;-67
2021/12/23 13:25:30;;;;;;;10.90;5.13;;;7.00;99.90;;;;;;5013066;28;20460;-70
2021/12/23 13:28:01;;;;;;;11.17;4.07;;;7.10;99.90;;;;;;5019678;28;20576;-70
2021/12/23 13:30:28;;;;;;;6.70;5.77;;;7.00;99.90;;;;;;5023566;28;20447;-67
2021/12/23 13:32:59;;;;;;;6.77;5.00;;;7.00;99.90;;;;;;5023460;28;20463;-68
2021/12/23 13:35:27;;;;;;;12.10;5.70;;;6.90;99.90;;;;;;5016192;28;20545;-67
2021/12/23 13:37:54;;;;;;;7.30;4.07;;;6.90;99.90;;;;;;5018469;28;20455;-68
2021/12/23 13:40:34;;;;;;;14.93;5.87;;;7.00;99.90;;;;;;5021708;28;20542;-68
2021/12/23 13:43:03;;;;;;;9.47;4.73;;;7.00;99.90;;;;;;5024171;28;21038;-69
2021/12/23 13:45:30;;;;;;;6.43;5.27;;;7.20;99.90;;;;;;5007336;28;20566;-67
2021/12/23 13:48:00;;;;;;;16.60;5.40;;;7.10;99.90;;;;;;5018972;28;20557;-69
2021/12/23 13:50:28;;;;;;;8.20;5.37;;;7.10;99.90;;;;;;5022503;28;20875;-69